Smyrna, TN (MQY)

CessnaPCRedbird FMX


Wings of Eagles Aviation started in Smyrna (MQY) in 1998 as a small flight school. The Smyrna Airport is the third largest airport in the state of Tennessee and the busiest general aviation airport. With its longest runway being just over 8,000 feet and having its own air traffic control tower, this is the best possible training environment for all pilots. Once you learn how to fly here, you will be confident no matter where your aviation adventures take you.

Address:
278 Doug Warpoole Rd. Suite 104
Smyrna, TN 37167

Phone: (615) 355-0033

Business Hours:
Monday-Sunday 7a-10p

Wings MQY

NOAA Weather

Smyrna, TN

Last Updated on Mar 25 2017, 11:56 am CDT

Current Conditions: A Few Clouds and Breezy

NOAA Icon

Temp: 73°F

Wind: South at 20mph

Humidity: 50%

Dewpoint: 53.1°F

Your 5-Day Forecast at a Glance

Available data for KMQY from the past 2 hours
SMYRNA, TN
Metar
KMQY 251656Z 17018G27KT 10SM FEW048 23/12 A3008 RMK AO2 PK WND 16029/1620 SLP099 T02280117

16:56 UTC

Wind: 170° 18kt

Visibility: 10 SM

Sky: FEW 4800 ft

Temp: 23 deg C / 73.4 deg F

Dewpoint: 12 deg C / 53.6 deg F

Pressure: 30.08 inHg

Pirep (1)
KMQY UA /OV KMQY/TM 1652/FLDURGD/TP BE40/SK FEW080/WX FV10SM/TA 23/WV 21020G30KT/TB MOD/RM WIND SHEER SHORT FINAL -10KT